• Join FlightAware (Why Join?)
  • Login
  • US Flag 
10:14AM EDT


 

Airport Tracker/Info


-or-


 

Live Flight TrackerFlight Track Log ✈ RPA4910 ✈ 17-Jul-2013 ✈ KEWR - KBTV

Flight Track Log - Related Links

Times and Time Zones

All times are in EDT time to prevent confusion due to time zone crossing. See the RPA4910 flight status page for this flight to view local times or setup timezone preferences in your user account.

Time Position Orientation Groundspeed Altitude Reporting Facility
EDT Latitude Longitude Course Direction KTS MPH feet Rate Location/Type
10:52PM 40.6167 -74.2000 90° East 197 227 3,100  Level New York TRACON
10:53PM 40.6167 -74.2500 270° West 204 235 5,000 1,620 Climbing New York TRACON
10:54PM 41.0541 -74.1372 North  Level FlightAware Approximate
10:54PM 40.6667 -74.2500 360° North 220 253 6,100  Level New York TRACON
10:55PM 41.1474 -74.1333 North  Level FlightAware Approximate
10:55PM 40.7333 -74.1833 37° Northeast 263 303 6,000  Level New York TRACON
10:56PM 41.1757 -74.0178 74° East  Level FlightAware Approximate
10:57PM 41.2000 -73.9063 90° East  Level FlightAware Approximate
10:57PM 40.8367 -74.0203 50° Northeast 276 318 8,200  Level Boston Center
10:58PM 40.8958 -73.9586 38° Northeast 271 312 9,600 1,320 Climbing Boston Center
10:59PM 40.9614 -73.8994 34° Northeast 269 310 10,900 1,200 Climbing Boston Center
11:00PM 41.0183 -73.8294 43° Northeast 276 318 12,100 1,140 Climbing Boston Center
11:01PM 41.0756 -73.7644 41° Northeast 293 337 13,200 960 Climbing Boston Center
11:02PM 41.1472 -73.6861 39° Northeast 300 345 14,100 840 Climbing Boston Center
11:03PM 41.2042 -73.6236 40° Northeast 300 345 14,900 720 Climbing Boston Center
11:04PM 41.2842 -73.5589 31° Northeast 297 342 15,600 540 Climbing Boston Center
11:05PM 41.3611 -73.5631 358° North 286 329 16,000 420 Climbing Boston Center
11:06PM 41.4572 -73.5508 North 312 359 16,600 420 Climbing Boston Center
11:07PM 41.5636 -73.5361 North 312 359 17,000 180 Climbing Boston Center
11:08PM 41.6469 -73.5236 North 312 359 17,000  Level Boston Center
11:09PM 41.7492 -73.5142 North 317 365 17,000  Level Boston Center
11:10PM 41.8306 -73.5017 North 332 382 17,000  Level Boston Center
11:11PM 41.9369 -73.4894 North 332 382 17,000  Level Boston Center
11:12PM 42.0206 -73.4742 North 338 389 17,000  Level Boston Center
11:13PM 42.1247 -73.4647 North 338 389 17,000 -60 Level Boston Center
11:14PM 42.2186 -73.4519 North 338 389 16,900  Descending Boston Center
11:15PM 42.3147 -73.4397 North 338 389 17,000  Climbing Boston Center
11:16PM 42.3983 -73.4242 North 338 389 17,000  Level Boston Center
11:17PM 42.5025 -73.4117 North 338 389 17,000  Level Boston Center
11:18PM 42.5881 -73.3989 North 338 389 17,000  Level Boston Center
11:19PM 42.6925 -73.3864 North 338 389 17,000  Level Boston Center
11:20PM 42.7781 -73.3764 North 338 389 17,000  Level Boston Center
11:21PM 42.8803 -73.3608 North 338 389 17,000  Level Boston Center
11:22PM 42.9678 -73.3481 North 338 389 17,000  Level Boston Center
11:23PM 43.0722 -73.3353 North 338 389 17,000  Level Boston Center
11:24PM 43.1578 -73.3225 North 343 395 17,000  Level Boston Center
11:25PM 43.2411 -73.3122 North 343 395 17,000  Level Boston Center
11:26PM 43.3456 -73.2994 North 343 395 17,000  Level Boston Center
11:27PM 43.4497 -73.2867 North 343 395 17,000 -600 Level Boston Center
11:28PM 43.5644 -73.2711 North 343 395 15,700 -1,140 Descending Boston Center
11:29PM 43.6603 -73.2608 North 343 395 14,600 -1,200 Descending Boston Center
11:30PM 43.7542 -73.2478 North 343 395 13,400 -1,140 Descending Boston Center
11:32PM 43.8756 -73.1889 19° North 319 367 12,000 -1,020 Descending Boston Center